Terminal Aerodrome Forecast
Issued by NWS Wilmington, OH

Current Version | Previous Version | Text Only | Print | Product List | Glossary Off
Versions: 1 2 3 4 5 6 7 8 9 10 11 12 13 14 15 16 17 18 19 20 21 22

000
FTUS41 KILN 250537
TAFCVG
TAF
KCVG 250537Z 2506/2612 25003KT P6SM SKC
     FM251200 29009KT P6SM SCT060
     FM260000 26003KT P6SM FEW060=

USA.gov is the U.S. government's official web portal to all federal, state and local government web resources and services.